createdAt,value
2017-10-17T00:00:57.826Z,0
2017-10-17T00:02:06.677Z,0
2017-10-17T00:03:15.527Z,0
2017-10-17T00:04:24.678Z,0
2017-10-17T00:05:33.874Z,0
2017-10-17T00:06:42.724Z,0
2017-10-17T00:07:51.576Z,0
2017-10-17T00:09:00.444Z,0
2017-10-17T00:10:09.382Z,0
2017-10-17T00:11:18.239Z,0
2017-10-17T00:12:27.091Z,0
2017-10-17T00:13:35.944Z,0
2017-10-17T00:14:44.796Z,0
2017-10-17T00:15:53.846Z,0
2017-10-17T00:17:02.697Z,0
2017-10-17T00:18:11.551Z,0
2017-10-17T00:19:20.740Z,0
2017-10-17T00:20:29.591Z,0
2017-10-17T00:21:38.788Z,0
2017-10-17T00:22:47.638Z,0
2017-10-17T00:23:56.483Z,0
2017-10-17T00:25:05.337Z,0
2017-10-17T00:26:14.540Z,0
2017-10-17T00:27:23.886Z,0
2017-10-17T00:28:32.743Z,0
2017-10-17T00:29:41.602Z,0
2017-10-17T00:30:50.442Z,0
2017-10-17T00:31:59.292Z,0
2017-10-17T00:33:08.142Z,0
2017-10-17T00:34:17.092Z,0
2017-10-17T00:35:25.939Z,0
2017-10-17T00:36:34.790Z,0
2017-10-17T00:37:43.640Z,0
2017-10-17T00:38:52.790Z,0
2017-10-17T00:40:01.644Z,0
2017-10-17T00:41:10.498Z,0
2017-10-17T00:42:19.350Z,0
2017-10-17T00:43:28.198Z,0
2017-10-17T00:44:37.149Z,0
2017-10-17T00:45:46.006Z,0
2017-10-17T00:46:54.855Z,0
2017-10-17T00:48:04.047Z,0
2017-10-17T00:49:12.895Z,0
2017-10-17T00:50:21.797Z,0
2017-10-17T00:51:30.647Z,0
2017-10-17T00:52:39.496Z,0
2017-10-17T00:53:48.552Z,0
2017-10-17T00:54:57.398Z,0
2017-10-17T00:56:06.300Z,0
2017-10-17T00:57:15.154Z,0
2017-10-17T00:58:24.003Z,0
2017-10-17T00:59:32.852Z,0
2017-10-17T01:00:41.699Z,0
2017-10-17T01:01:51.147Z,0
2017-10-17T01:03:00.000Z,0
2017-10-17T01:04:08.854Z,0
2017-10-17T01:05:17.701Z,0
2017-10-17T01:06:26.552Z,0
2017-10-17T01:07:35.404Z,0
2017-10-17T01:08:44.254Z,0
2017-10-17T01:09:53.101Z,0
2017-10-17T01:11:01.948Z,0
2017-10-17T01:12:10.798Z,0
2017-10-17T01:13:19.799Z,0
2017-10-17T01:14:28.648Z,0
2017-10-17T01:15:37.497Z,0
2017-10-17T01:16:46.346Z,0
2017-10-17T01:17:55.196Z,0
2017-10-17T01:19:04.244Z,0
2017-10-17T01:20:13.093Z,0
2017-10-17T01:21:21.945Z,0
2017-10-17T01:22:30.794Z,0
2017-10-17T01:23:39.645Z,0
2017-10-17T01:24:48.504Z,0
2017-10-17T01:25:57.355Z,0
2017-10-17T01:27:06.206Z,0
2017-10-17T01:28:15.054Z,0
2017-10-17T01:29:24.253Z,0
2017-10-17T01:30:33.302Z,0
2017-10-17T01:31:42.155Z,0
2017-10-17T01:32:51.009Z,0
2017-10-17T01:33:59.856Z,0
2017-10-17T01:35:08.709Z,0
2017-10-17T01:36:17.561Z,0
2017-10-17T01:37:26.413Z,0
2017-10-17T01:38:35.261Z,0
2017-10-17T01:39:44.114Z,0
2017-10-17T01:40:52.962Z,0
2017-10-17T01:42:01.913Z,0
2017-10-17T01:43:10.764Z,0
2017-10-17T01:44:19.618Z,0
2017-10-17T01:45:28.463Z,0
2017-10-17T01:46:37.311Z,0
2017-10-17T01:47:46.163Z,0
2017-10-17T01:48:55.016Z,0
2017-10-17T01:50:03.865Z,0
2017-10-17T01:51:12.717Z,0
2017-10-17T01:52:21.566Z,0
2017-10-17T01:53:30.517Z,0
2017-10-17T01:54:39.366Z,0
2017-10-17T01:55:48.216Z,0
2017-10-17T01:56:57.067Z,0
2017-10-17T01:58:05.916Z,0
2017-10-17T01:59:14.915Z,0
2017-10-17T02:00:23.768Z,0
2017-10-17T02:01:32.611Z,0
2017-10-17T02:02:41.806Z,0
2017-10-17T02:03:50.663Z,0
2017-10-17T02:04:59.809Z,0
2017-10-17T02:06:08.664Z,0
2017-10-17T02:07:17.507Z,0
2017-10-17T02:08:26.358Z,0
2017-10-17T02:09:35.209Z,0
2017-10-17T02:10:44.057Z,0
2017-10-17T02:11:52.910Z,0
2017-10-17T02:13:01.760Z,0
2017-10-17T02:14:10.611Z,0
2017-10-17T02:15:19.463Z,0
2017-10-17T02:16:28.712Z,0
2017-10-17T02:17:37.561Z,0
2017-10-17T02:18:46.414Z,0
2017-10-17T02:19:55.264Z,0
2017-10-17T02:21:04.116Z,0
2017-10-17T02:22:13.114Z,0
2017-10-17T02:23:21.964Z,0
2017-10-17T02:24:30.814Z,0
2017-10-17T02:25:39.664Z,0
2017-10-17T02:26:48.514Z,0
2017-10-17T02:27:57.466Z,0
2017-10-17T02:29:06.318Z,0
2017-10-17T02:30:15.168Z,0
2017-10-17T02:31:24.021Z,0
2017-10-17T02:32:32.869Z,0
2017-10-17T02:33:41.819Z,0
2017-10-17T02:34:50.668Z,0
2017-10-17T02:35:59.517Z,0
2017-10-17T02:37:08.366Z,0
2017-10-17T02:38:17.216Z,0
2017-10-17T02:39:26.115Z,0
2017-10-17T02:40:34.966Z,0
2017-10-17T02:41:43.815Z,0
2017-10-17T02:42:52.667Z,0
2017-10-17T02:44:01.516Z,0
2017-10-17T02:45:10.466Z,0
2017-10-17T02:46:19.317Z,0
2017-10-17T02:47:28.164Z,0
2017-10-17T02:48:37.011Z,0
2017-10-17T02:49:45.860Z,0
2017-10-17T02:50:55.015Z,0
2017-10-17T02:52:03.861Z,0
2017-10-17T02:53:12.707Z,0
2017-10-17T02:54:21.555Z,0
2017-10-17T02:55:30.750Z,0
2017-10-17T02:56:39.699Z,0
2017-10-17T02:57:48.547Z,0
2017-10-17T02:58:57.394Z,0
2017-10-17T03:00:06.245Z,0
2017-10-17T03:01:15.101Z,0
2017-10-17T03:02:24.350Z,0
2017-10-17T03:03:33.199Z,0
2017-10-17T03:04:42.052Z,0
2017-10-17T03:05:50.901Z,0
2017-10-17T03:06:59.752Z,0
2017-10-17T03:08:08.755Z,0
2017-10-17T03:09:17.603Z,0
2017-10-17T03:10:26.454Z,0
2017-10-17T03:11:35.305Z,0
2017-10-17T03:12:44.154Z,0
2017-10-17T03:13:53.108Z,0
2017-10-17T03:15:01.961Z,0
2017-10-17T03:16:10.810Z,0
2017-10-17T03:17:19.662Z,0
2017-10-17T03:18:28.511Z,0
2017-10-17T03:19:37.563Z,0
2017-10-17T03:20:46.416Z,0
2017-10-17T03:21:55.266Z,0
2017-10-17T03:23:04.117Z,0
2017-10-17T03:24:12.965Z,0
2017-10-17T03:25:21.865Z,0
2017-10-17T03:26:31.055Z,0
2017-10-17T03:27:39.911Z,0
2017-10-17T03:28:48.759Z,0
2017-10-17T03:29:57.609Z,0
2017-10-17T03:31:06.834Z,0
2017-10-17T03:32:16.049Z,0
2017-10-17T03:33:24.901Z,0
2017-10-17T03:34:33.752Z,0
2017-10-17T03:35:42.601Z,0
2017-10-17T03:36:51.450Z,0
2017-10-17T03:38:00.299Z,0
2017-10-17T03:39:09.489Z,0
2017-10-17T03:40:18.339Z,0
2017-10-17T03:41:27.187Z,0
2017-10-17T03:42:36.087Z,0
2017-10-17T03:43:44.937Z,0
2017-10-17T03:44:53.788Z,0
2017-10-17T03:46:02.638Z,0
2017-10-17T03:47:11.490Z,0
2017-10-17T03:48:20.442Z,0
2017-10-17T03:49:29.638Z,0
2017-10-17T03:50:38.489Z,0
2017-10-17T03:51:47.339Z,0
2017-10-17T03:52:56.186Z,0
2017-10-17T03:54:05.338Z,0
2017-10-17T03:55:14.187Z,0
2017-10-17T03:56:23.039Z,0
2017-10-17T03:57:32.240Z,0
2017-10-17T03:58:41.088Z,0
2017-10-17T03:59:50.036Z,0
2017-10-17T04:00:58.886Z,0
2017-10-17T04:02:07.735Z,0
2017-10-17T04:03:16.586Z,0
2017-10-17T04:04:25.437Z,0
2017-10-17T04:05:34.453Z,0
2017-10-17T04:06:43.288Z,0
2017-10-17T04:07:52.131Z,0
2017-10-17T04:09:00.978Z,0
2017-10-17T04:10:09.826Z,0
2017-10-17T04:11:19.074Z,0
2017-10-17T04:12:27.926Z,0
2017-10-17T04:13:36.779Z,0
2017-10-17T04:14:45.628Z,0
2017-10-17T04:15:54.481Z,0
2017-10-17T04:17:03.333Z,0
2017-10-17T04:18:12.184Z,0
2017-10-17T04:19:21.035Z,0
2017-10-17T04:20:29.885Z,0
2017-10-17T04:21:38.735Z,0
2017-10-17T04:22:47.883Z,0
2017-10-17T04:23:56.740Z,0
2017-10-17T04:25:05.590Z,0
2017-10-17T04:26:14.438Z,0
2017-10-17T04:27:23.288Z,0
2017-10-17T04:28:32.336Z,0
2017-10-17T04:29:41.186Z,0
2017-10-17T04:30:50.039Z,0
2017-10-17T04:31:58.888Z,0
2017-10-17T04:33:07.739Z,0
2017-10-17T04:34:16.595Z,0
2017-10-17T04:35:25.442Z,0
2017-10-17T04:36:34.291Z,0
2017-10-17T04:37:43.140Z,0
2017-10-17T04:38:52.009Z,0
2017-10-17T04:40:01.077Z,0
2017-10-17T04:41:09.925Z,0
2017-10-17T04:42:18.779Z,0
2017-10-17T04:43:27.653Z,0
2017-10-17T04:44:36.497Z,0
2017-10-17T04:45:45.344Z,0
2017-10-17T04:46:54.540Z,0
2017-10-17T04:48:03.401Z,0
2017-10-17T04:49:12.250Z,0
2017-10-17T04:50:21.101Z,0
2017-10-17T04:51:30.067Z,0
2017-10-17T04:52:38.975Z,0
2017-10-17T04:53:47.827Z,0
2017-10-17T04:54:56.674Z,0
2017-10-17T04:56:05.524Z,0
2017-10-17T04:57:14.378Z,0
2017-10-17T04:58:23.222Z,0
2017-10-17T04:59:32.566Z,0
2017-10-17T05:00:41.765Z,0
2017-10-17T05:01:50.614Z,0
2017-10-17T05:02:59.485Z,0
2017-10-17T05:04:08.335Z,0
2017-10-17T05:05:17.334Z,0
2017-10-17T05:06:26.186Z,0
2017-10-17T05:07:35.037Z,0
2017-10-17T05:08:43.889Z,0
2017-10-17T05:09:52.743Z,0
2017-10-17T05:11:01.839Z,0
2017-10-17T05:12:11.043Z,0
2017-10-17T05:13:19.894Z,0
2017-10-17T05:14:28.746Z,0
2017-10-17T05:15:37.597Z,0
2017-10-17T05:16:46.551Z,0
2017-10-17T05:17:55.403Z,0
2017-10-17T05:19:04.252Z,0
2017-10-17T05:20:13.110Z,0
2017-10-17T05:21:21.956Z,0
2017-10-17T05:22:30.908Z,0
2017-10-17T05:23:39.760Z,0
2017-10-17T05:24:48.610Z,0
2017-10-17T05:25:57.458Z,0
2017-10-17T05:27:06.314Z,0
2017-10-17T05:28:15.265Z,0
2017-10-17T05:29:24.112Z,0
2017-10-17T05:30:32.963Z,0
2017-10-17T05:31:41.918Z,4
2017-10-17T05:32:50.772Z,4
2017-10-17T05:33:59.929Z,0
2017-10-17T05:35:08.775Z,0
2017-10-17T05:36:17.970Z,4
2017-10-17T05:37:26.820Z,4
2017-10-17T05:38:35.672Z,4
2017-10-17T05:39:44.624Z,4
2017-10-17T05:40:53.476Z,8
2017-10-17T05:42:02.328Z,8
2017-10-17T05:43:11.187Z,8
2017-10-17T05:44:20.037Z,12
2017-10-17T05:45:28.947Z,12
2017-10-17T05:46:37.797Z,16
2017-10-17T05:47:46.650Z,16
2017-10-17T05:48:55.551Z,20
2017-10-17T05:50:04.421Z,24
2017-10-17T05:51:13.476Z,28
2017-10-17T05:52:22.331Z,28
2017-10-17T05:53:31.184Z,32
2017-10-17T05:54:40.035Z,36
2017-10-17T05:55:48.896Z,36
2017-10-17T05:56:57.841Z,40
2017-10-17T05:58:06.692Z,44
2017-10-17T05:59:15.548Z,44
2017-10-17T06:00:24.396Z,48
2017-10-17T06:01:33.245Z,52
2017-10-17T06:02:42.298Z,56
2017-10-17T06:03:51.148Z,60
2017-10-17T06:05:00.004Z,68
2017-10-17T06:06:08.851Z,72
2017-10-17T06:07:17.754Z,76
2017-10-17T06:08:26.603Z,84
2017-10-17T06:09:35.451Z,88
2017-10-17T06:10:44.305Z,96
2017-10-17T06:11:53.154Z,100
2017-10-17T06:13:02.008Z,108
2017-10-17T06:14:11.010Z,116
2017-10-17T06:15:19.859Z,124
2017-10-17T06:16:28.710Z,136
2017-10-17T06:17:37.560Z,140
2017-10-17T06:18:46.409Z,148
2017-10-17T06:19:55.512Z,152
2017-10-17T06:21:04.361Z,164
2017-10-17T06:22:13.212Z,176
2017-10-17T06:23:22.061Z,180
2017-10-17T06:24:30.913Z,192
2017-10-17T06:25:39.866Z,200
2017-10-17T06:26:48.718Z,208
2017-10-17T06:27:57.570Z,216
2017-10-17T06:29:06.420Z,228
2017-10-17T06:30:15.272Z,240
2017-10-17T06:31:24.568Z,260
2017-10-17T06:32:33.416Z,272
2017-10-17T06:33:42.263Z,288
2017-10-17T06:34:51.113Z,300
2017-10-17T06:35:59.962Z,312
2017-10-17T06:37:08.863Z,328
2017-10-17T06:38:17.718Z,340
2017-10-17T06:39:26.909Z,348
2017-10-17T06:40:35.760Z,364
2017-10-17T06:41:44.952Z,380
2017-10-17T06:42:54.104Z,392
2017-10-17T06:44:02.956Z,412
2017-10-17T06:45:11.809Z,420
2017-10-17T06:46:20.660Z,428
2017-10-17T06:47:29.510Z,444
2017-10-17T06:48:38.412Z,456
2017-10-17T06:49:47.261Z,480
2017-10-17T06:50:56.111Z,500
2017-10-17T06:52:04.964Z,528
2017-10-17T06:53:13.812Z,552
2017-10-17T06:54:22.813Z,568
2017-10-17T06:55:31.661Z,580
2017-10-17T06:56:40.512Z,592
2017-10-17T06:57:49.364Z,608
2017-10-17T06:58:58.909Z,624
2017-10-17T07:00:08.058Z,644
2017-10-17T07:01:16.909Z,668
2017-10-17T07:02:25.760Z,688
2017-10-17T07:03:34.614Z,708
2017-10-17T07:04:43.469Z,720
2017-10-17T07:05:52.318Z,736
2017-10-17T07:07:01.169Z,744
2017-10-17T07:08:10.024Z,760
2017-10-17T07:09:18.874Z,776
2017-10-17T07:10:27.725Z,792
2017-10-17T07:11:36.574Z,804
2017-10-17T07:12:45.425Z,812
2017-10-17T07:13:54.276Z,820
2017-10-17T07:15:03.128Z,824
2017-10-17T07:16:11.979Z,824
2017-10-17T07:17:20.827Z,820
2017-10-17T07:18:29.679Z,824
2017-10-17T07:19:38.527Z,828
2017-10-17T07:20:47.378Z,832
2017-10-17T07:21:56.228Z,836
2017-10-17T07:23:05.128Z,836
2017-10-17T07:24:13.977Z,852
2017-10-17T07:25:22.828Z,872
2017-10-17T07:26:31.680Z,900
2017-10-17T07:27:40.527Z,932
2017-10-17T07:28:49.680Z,968
2017-10-17T07:29:58.531Z,1008
2017-10-17T07:31:07.381Z,1044
2017-10-17T07:32:16.232Z,1076
2017-10-17T07:33:25.084Z,1100
2017-10-17T07:34:34.133Z,1136
2017-10-17T07:35:42.985Z,1176
2017-10-17T07:36:51.834Z,1216
2017-10-17T07:38:01.030Z,1256
2017-10-17T07:39:09.880Z,1292
2017-10-17T07:40:18.881Z,1316
2017-10-17T07:41:27.728Z,1340
2017-10-17T07:42:36.930Z,1360
2017-10-17T07:43:45.785Z,1388
2017-10-17T07:44:54.635Z,1412
2017-10-17T07:46:03.538Z,1444
2017-10-17T07:47:12.391Z,1476
2017-10-17T07:48:21.240Z,1508
2017-10-17T07:49:30.097Z,1532
2017-10-17T07:50:38.943Z,1548
2017-10-17T07:51:47.893Z,1560
2017-10-17T07:52:56.745Z,1568
2017-10-17T07:54:05.595Z,1576
2017-10-17T07:55:14.443Z,1576
2017-10-17T07:56:23.294Z,1580
2017-10-17T07:57:32.197Z,1588
2017-10-17T07:58:41.051Z,1584
2017-10-17T07:59:49.898Z,1576
2017-10-17T08:00:58.746Z,1576
2017-10-17T08:02:07.600Z,1588
2017-10-17T08:03:16.749Z,1600
2017-10-17T08:04:25.598Z,1624
2017-10-17T08:05:34.443Z,1652
2017-10-17T08:06:43.295Z,1676
2017-10-17T08:07:52.145Z,1692
2017-10-17T08:09:01.096Z,1712
2017-10-17T08:10:09.945Z,1740
2017-10-17T08:11:18.797Z,1752
2017-10-17T08:12:27.647Z,1744
2017-10-17T08:13:36.496Z,1732
2017-10-17T08:14:45.446Z,1732
2017-10-17T08:15:54.296Z,1748
2017-10-17T08:17:03.150Z,1760
2017-10-17T08:18:12.006Z,1772
2017-10-17T08:19:20.859Z,1784
2017-10-17T08:20:29.807Z,1796
2017-10-17T08:21:38.657Z,1824
2017-10-17T08:22:47.510Z,1856
2017-10-17T08:23:56.360Z,1900
2017-10-17T08:25:05.212Z,1948
2017-10-17T08:26:14.416Z,1980
2017-10-17T08:27:23.267Z,2012
2017-10-17T08:28:32.118Z,2048
2017-10-17T08:29:40.965Z,2072
2017-10-17T08:30:49.816Z,2084
2017-10-17T08:31:58.667Z,2112
2017-10-17T08:33:07.527Z,2140
2017-10-17T08:34:16.367Z,2168
2017-10-17T08:35:25.216Z,2188
2017-10-17T08:36:34.414Z,2200
2017-10-17T08:37:43.517Z,2216
2017-10-17T08:38:52.368Z,2244
2017-10-17T08:40:01.220Z,2256
2017-10-17T08:41:10.423Z,2284
2017-10-17T08:42:19.274Z,2312
2017-10-17T08:43:28.719Z,2344
2017-10-17T08:44:37.571Z,2372
2017-10-17T08:45:46.423Z,2408
2017-10-17T08:46:55.276Z,2436
2017-10-17T08:48:04.123Z,2468
2017-10-17T08:49:13.127Z,2500
2017-10-17T08:50:21.983Z,2536
2017-10-17T08:51:30.837Z,2556
2017-10-17T08:52:39.687Z,2588
2017-10-17T08:53:48.548Z,2604
2017-10-17T08:54:57.548Z,2596
2017-10-17T08:56:06.400Z,2580
2017-10-17T08:57:15.251Z,2584
2017-10-17T08:58:24.103Z,2592
2017-10-17T08:59:32.963Z,2596
2017-10-17T09:00:42.493Z,2600
2017-10-17T09:01:51.345Z,2600
2017-10-17T09:03:00.194Z,2596
2017-10-17T09:04:09.044Z,2604
2017-10-17T09:05:17.894Z,2628
2017-10-17T09:06:26.847Z,2672
2017-10-17T09:07:35.699Z,2700
2017-10-17T09:08:44.550Z,2724
2017-10-17T09:09:53.407Z,2756
2017-10-17T09:11:02.259Z,2784
2017-10-17T09:12:11.258Z,2816
2017-10-17T09:13:20.112Z,2844
2017-10-17T09:14:28.961Z,2868
2017-10-17T09:15:37.813Z,2912
2017-10-17T09:16:46.663Z,2964
2017-10-17T09:17:55.915Z,3040
2017-10-17T09:19:05.136Z,3120
2017-10-17T09:20:13.985Z,3180
2017-10-17T09:21:22.835Z,3236
2017-10-17T09:22:31.687Z,3284
2017-10-17T09:23:40.638Z,3320
2017-10-17T09:24:49.494Z,3348
2017-10-17T09:25:58.692Z,3376
2017-10-17T09:27:07.542Z,3384
2017-10-17T09:28:16.392Z,3400
2017-10-17T09:29:25.394Z,3436
2017-10-17T09:30:34.246Z,3480
2017-10-17T09:31:43.103Z,3512
2017-10-17T09:32:51.952Z,3552
2017-10-17T09:34:00.807Z,3588
2017-10-17T09:35:09.808Z,3644
2017-10-17T09:36:18.660Z,3708
2017-10-17T09:37:27.511Z,3760
2017-10-17T09:38:36.359Z,3768
2017-10-17T09:39:45.210Z,3784
2017-10-17T09:40:54.163Z,3804
2017-10-17T09:42:03.361Z,3812
2017-10-17T09:43:12.210Z,3832
2017-10-17T09:44:21.063Z,3824
2017-10-17T09:45:29.917Z,3808
2017-10-17T09:46:38.967Z,3780
2017-10-17T09:47:47.818Z,3756
2017-10-17T09:48:56.672Z,3756
2017-10-17T09:50:05.526Z,3772
2017-10-17T09:51:14.377Z,3808
2017-10-17T09:52:23.484Z,3856
2017-10-17T09:53:32.331Z,3924
2017-10-17T09:54:41.183Z,3960
2017-10-17T09:55:50.035Z,4004
2017-10-17T09:56:58.885Z,4020
2017-10-17T09:58:07.839Z,4036
2017-10-17T09:59:17.043Z,4052
2017-10-17T10:00:25.893Z,4044
2017-10-17T10:01:34.742Z,4048
2017-10-17T10:02:43.598Z,4008
2017-10-17T10:03:52.650Z,4044
2017-10-17T10:05:01.502Z,4172
2017-10-17T10:06:10.356Z,4116
2017-10-17T10:07:19.209Z,4084
2017-10-17T10:08:28.059Z,4068
2017-10-17T10:09:37.215Z,4036
2017-10-17T10:10:46.067Z,4032
2017-10-17T10:11:54.921Z,4028
2017-10-17T10:13:03.774Z,4040
2017-10-17T10:14:12.627Z,4004
2017-10-17T10:15:21.678Z,4012
2017-10-17T10:16:30.875Z,4036
2017-10-17T10:17:40.075Z,4072
2017-10-17T10:18:48.926Z,4100
2017-10-17T10:19:57.780Z,4152
2017-10-17T10:21:06.731Z,4196
2017-10-17T10:22:15.584Z,4204
2017-10-17T10:23:24.437Z,4172
2017-10-17T10:24:33.291Z,4144
2017-10-17T10:25:42.145Z,4232
2017-10-17T10:26:51.100Z,4316
2017-10-17T10:27:59.954Z,4424
2017-10-17T10:29:09.146Z,4520
2017-10-17T10:30:17.994Z,4584
2017-10-17T10:31:26.845Z,4648
2017-10-17T10:32:35.797Z,4692
2017-10-17T10:33:44.650Z,4724
2017-10-17T10:34:53.501Z,4724
2017-10-17T10:36:02.354Z,4752
2017-10-17T10:37:11.209Z,4836
2017-10-17T10:38:20.275Z,4872
2017-10-17T10:39:29.115Z,4944
2017-10-17T10:40:37.968Z,5012
2017-10-17T10:41:46.819Z,5072
2017-10-17T10:42:55.670Z,5124
2017-10-17T10:44:04.723Z,5180
2017-10-17T10:45:13.576Z,5256
2017-10-17T10:46:22.429Z,5284
2017-10-17T10:47:31.629Z,5336
2017-10-17T10:48:40.482Z,5356
2017-10-17T10:49:49.537Z,5412
2017-10-17T10:50:58.390Z,5472
2017-10-17T10:52:07.243Z,5516
2017-10-17T10:53:16.091Z,5528
2017-10-17T10:54:24.947Z,5536
2017-10-17T10:55:33.798Z,5492
2017-10-17T10:56:42.651Z,5508
2017-10-17T10:57:51.502Z,5500
2017-10-17T10:59:00.358Z,5484
2017-10-17T11:00:09.211Z,5512
2017-10-17T11:01:18.266Z,5600
2017-10-17T11:02:27.118Z,5700
2017-10-17T11:03:35.972Z,5712
2017-10-17T11:04:44.828Z,5748
2017-10-17T11:05:53.680Z,5776
2017-10-17T11:07:02.635Z,5836
2017-10-17T11:08:11.488Z,5800
2017-10-17T11:09:20.344Z,5712
2017-10-17T11:10:29.194Z,5672
2017-10-17T11:11:38.395Z,5664
2017-10-17T11:12:47.500Z,5656
2017-10-17T11:13:56.353Z,5676
2017-10-17T11:15:05.203Z,5700
2017-10-17T11:16:14.056Z,5724
2017-10-17T11:17:22.908Z,5652
2017-10-17T11:18:32.008Z,5704
2017-10-17T11:19:40.863Z,5632
2017-10-17T11:20:49.715Z,5640
2017-10-17T11:21:58.567Z,5644
2017-10-17T11:23:07.420Z,5536
2017-10-17T11:24:16.423Z,5632
2017-10-17T11:25:25.279Z,5768
2017-10-17T11:26:34.133Z,5856
2017-10-17T11:27:42.988Z,5904
2017-10-17T11:28:51.840Z,5988
2017-10-17T11:30:00.798Z,5944
2017-10-17T11:31:09.994Z,5852
2017-10-17T11:32:18.903Z,5736
2017-10-17T11:33:27.755Z,5724
2017-10-17T11:34:36.609Z,5772
2017-10-17T11:35:45.516Z,5808
2017-10-17T11:36:54.387Z,5832
2017-10-17T11:38:03.243Z,5860
2017-10-17T11:39:12.096Z,5900
2017-10-17T11:40:21.587Z,5956
2017-10-17T11:41:30.545Z,6008
2017-10-17T11:42:39.396Z,6004
2017-10-17T11:43:48.247Z,6032
2017-10-17T11:44:57.102Z,6084
2017-10-17T11:46:05.960Z,6048
2017-10-17T11:47:14.853Z,6028
2017-10-17T11:48:23.707Z,6004
2017-10-17T11:49:32.558Z,5912
2017-10-17T11:50:41.412Z,5904
2017-10-17T11:51:50.264Z,5988
2017-10-17T11:52:59.317Z,6068
2017-10-17T11:54:08.172Z,6172
2017-10-17T11:55:17.026Z,6176
2017-10-17T11:56:25.879Z,6168
2017-10-17T11:57:34.737Z,6084
2017-10-17T11:58:43.690Z,6044
2017-10-17T11:59:52.546Z,5904
2017-10-17T12:01:01.402Z,5800
2017-10-17T12:02:10.258Z,5764
2017-10-17T12:03:19.457Z,5772
2017-10-17T12:04:28.407Z,5648
2017-10-17T12:05:37.502Z,5464
2017-10-17T12:06:46.577Z,5504
2017-10-17T12:07:55.440Z,5860
2017-10-17T12:09:04.294Z,5840
2017-10-17T12:10:13.353Z,5844
2017-10-17T12:11:22.556Z,5852
2017-10-17T12:12:31.409Z,5848
2017-10-17T12:13:40.263Z,5860
2017-10-17T12:14:49.117Z,5852
2017-10-17T12:15:58.274Z,5832
2017-10-17T12:17:07.135Z,5788
2017-10-17T12:18:15.986Z,5616
2017-10-17T12:19:24.837Z,5536
2017-10-17T12:20:33.691Z,5624
2017-10-17T12:21:42.744Z,5592
2017-10-17T12:22:51.597Z,5584
2017-10-17T12:24:00.450Z,5564
2017-10-17T12:25:09.309Z,5372
2017-10-17T12:26:18.162Z,5312
2017-10-17T12:27:27.016Z,5212
2017-10-17T12:28:35.871Z,5184
2017-10-17T12:29:46.238Z,5280
2017-10-17T12:30:56.628Z,5360
2017-10-17T12:32:05.793Z,5328
2017-10-17T12:33:14.929Z,5216
2017-10-17T12:34:23.785Z,5088
2017-10-17T12:35:32.741Z,5144
2017-10-17T12:36:43.800Z,5196
2017-10-17T12:37:52.943Z,5224
2017-10-17T12:39:02.600Z,5308
2017-10-17T12:40:12.094Z,5372
2017-10-17T12:41:21.677Z,5256
2017-10-17T12:42:30.785Z,5096
2017-10-17T12:43:39.940Z,4976
2017-10-17T12:44:49.138Z,4888
2017-10-17T12:45:58.791Z,4968
2017-10-17T12:47:08.164Z,5088
2017-10-17T12:48:18.039Z,5168
2017-10-17T12:49:28.313Z,5096
2017-10-17T12:50:38.107Z,5016
2017-10-17T12:51:46.987Z,4928
2017-10-17T12:52:56.625Z,4892
2017-10-17T12:54:05.583Z,4916
2017-10-17T12:55:14.559Z,4864
2017-10-17T12:56:24.314Z,4888
2017-10-17T12:57:34.049Z,4896
2017-10-17T12:58:43.267Z,4840
2017-10-17T12:59:52.123Z,4800
2017-10-17T13:01:00.976Z,4948
2017-10-17T13:02:09.981Z,5084
2017-10-17T13:03:18.836Z,5232
2017-10-17T13:04:27.691Z,5168
2017-10-17T13:05:36.546Z,5028
2017-10-17T13:06:45.401Z,4908
2017-10-17T13:07:54.352Z,4972
2017-10-17T13:09:03.207Z,4936
2017-10-17T13:10:12.412Z,4788
2017-10-17T13:11:21.266Z,4696
2017-10-17T13:12:30.122Z,4724
2017-10-17T13:13:39.179Z,4860
2017-10-17T13:14:48.034Z,4960
2017-10-17T13:15:56.890Z,4888
2017-10-17T13:17:05.747Z,4724
2017-10-17T13:18:14.599Z,4668
2017-10-17T13:19:23.553Z,4564
2017-10-17T13:20:32.406Z,4552
2017-10-17T13:21:41.260Z,4500
2017-10-17T13:22:50.116Z,4396
2017-10-17T13:23:58.972Z,4328
2017-10-17T13:25:08.130Z,4292
2017-10-17T13:26:16.984Z,4348
2017-10-17T13:27:25.842Z,4388
2017-10-17T13:28:34.699Z,4464
2017-10-17T13:29:43.550Z,4460
2017-10-17T13:30:52.405Z,4436
2017-10-17T13:32:01.262Z,4344
2017-10-17T13:33:10.131Z,4376
2017-10-17T13:34:18.980Z,4428
2017-10-17T13:35:27.956Z,4284
2017-10-17T13:36:36.809Z,3988
2017-10-17T13:37:45.661Z,3648
2017-10-17T13:38:54.515Z,3420
2017-10-17T13:40:03.366Z,3248
2017-10-17T13:41:12.220Z,3120
2017-10-17T13:42:21.076Z,3024
2017-10-17T13:43:29.952Z,2988
2017-10-17T13:44:38.807Z,2760
2017-10-17T13:45:47.662Z,2604
2017-10-17T13:46:56.520Z,2596
2017-10-17T13:48:05.376Z,2572
2017-10-17T13:49:14.234Z,2488
2017-10-17T13:50:23.096Z,2484
2017-10-17T13:51:31.978Z,2400
2017-10-17T13:52:40.841Z,2328
2017-10-17T13:53:49.700Z,2264
2017-10-17T13:54:58.554Z,2324
2017-10-17T13:56:07.409Z,2416
2017-10-17T13:57:16.264Z,2492
2017-10-17T13:58:25.119Z,2516
2017-10-17T13:59:33.975Z,2520
2017-10-17T14:00:42.826Z,2496
2017-10-17T14:01:51.736Z,2516
2017-10-17T14:03:00.600Z,2540
2017-10-17T14:04:09.471Z,2468
2017-10-17T14:05:18.388Z,2376
2017-10-17T14:06:27.252Z,2292
2017-10-17T14:07:36.756Z,2252
2017-10-17T14:08:45.619Z,2224
2017-10-17T14:09:54.587Z,2240
2017-10-17T14:11:03.646Z,2264
2017-10-17T14:12:12.537Z,2256
2017-10-17T14:13:22.489Z,2276
2017-10-17T14:14:31.977Z,2304
2017-10-17T14:15:40.833Z,2252
2017-10-17T14:16:49.685Z,2196
2017-10-17T14:17:58.542Z,2164
2017-10-17T14:19:07.429Z,2112
2017-10-17T14:20:16.633Z,2088
2017-10-17T14:21:25.485Z,2060
2017-10-17T14:22:34.342Z,2024
2017-10-17T14:23:43.200Z,1968
2017-10-17T14:24:52.203Z,1944
2017-10-17T14:26:01.077Z,1904
2017-10-17T14:27:09.930Z,1844
2017-10-17T14:28:18.783Z,1780
2017-10-17T14:29:27.649Z,1724
2017-10-17T14:30:36.515Z,1660
2017-10-17T14:31:45.377Z,1612
2017-10-17T14:32:54.231Z,1588
2017-10-17T14:34:03.082Z,1604
2017-10-17T14:35:11.936Z,1648
2017-10-17T14:36:20.789Z,1656
2017-10-17T14:37:29.645Z,1624
2017-10-17T14:38:38.500Z,1580
2017-10-17T14:39:47.352Z,1548
2017-10-17T14:40:56.552Z,1536
2017-10-17T14:42:05.405Z,1500
2017-10-17T14:43:14.255Z,1484
2017-10-17T14:44:23.109Z,1452
2017-10-17T14:45:31.979Z,1416
2017-10-17T14:46:40.935Z,1368
2017-10-17T14:47:49.790Z,1316
2017-10-17T14:48:58.645Z,1280
2017-10-17T14:50:07.498Z,1228
2017-10-17T14:51:16.351Z,1172
2017-10-17T14:52:25.210Z,1116
2017-10-17T14:53:34.064Z,1068
2017-10-17T14:54:42.924Z,1016
2017-10-17T14:55:51.768Z,1016
2017-10-17T14:57:00.641Z,1032
2017-10-17T14:58:09.473Z,1040
2017-10-17T14:59:18.324Z,1056
2017-10-17T15:00:27.179Z,1068
2017-10-17T15:01:36.235Z,1056
2017-10-17T15:02:45.084Z,1032
2017-10-17T15:03:53.943Z,1008
2017-10-17T15:05:02.806Z,980
2017-10-17T15:06:12.022Z,932
2017-10-17T15:07:21.215Z,904
2017-10-17T15:08:30.073Z,892
2017-10-17T15:09:38.943Z,868
2017-10-17T15:10:47.800Z,828
2017-10-17T15:11:56.652Z,788
2017-10-17T15:13:05.605Z,740
2017-10-17T15:14:14.456Z,688
2017-10-17T15:15:23.307Z,676
2017-10-17T15:16:32.159Z,680
2017-10-17T15:17:41.011Z,688
2017-10-17T15:18:49.913Z,704
2017-10-17T15:19:58.764Z,704
2017-10-17T15:21:07.617Z,696
2017-10-17T15:22:16.473Z,684
2017-10-17T15:23:25.327Z,676
2017-10-17T15:24:34.230Z,648
2017-10-17T15:25:43.082Z,632
2017-10-17T15:26:51.935Z,620
2017-10-17T15:28:00.787Z,596
2017-10-17T15:29:09.658Z,592
2017-10-17T15:30:18.493Z,588
2017-10-17T15:31:27.348Z,576
2017-10-17T15:32:36.202Z,556
2017-10-17T15:33:45.052Z,528
2017-10-17T15:34:53.904Z,500
2017-10-17T15:36:03.004Z,476
2017-10-17T15:37:11.856Z,464
2017-10-17T15:38:20.709Z,456
2017-10-17T15:39:29.558Z,436
2017-10-17T15:40:38.408Z,420
2017-10-17T15:41:47.363Z,408
2017-10-17T15:42:56.217Z,396
2017-10-17T15:44:05.069Z,384
2017-10-17T15:45:13.921Z,376
2017-10-17T15:46:22.776Z,372
2017-10-17T15:47:31.731Z,372
2017-10-17T15:48:40.595Z,372
2017-10-17T15:49:49.445Z,368
2017-10-17T15:50:58.301Z,372
2017-10-17T15:52:07.153Z,372
2017-10-17T15:53:16.115Z,364
2017-10-17T15:54:24.971Z,348
2017-10-17T15:55:33.827Z,332
2017-10-17T15:56:42.682Z,316
2017-10-17T15:57:51.538Z,300